sensor_id;sensor_type;location;lat;lon;timestamp;P1;durP1;ratioP1;P2;durP2;ratioP2
59042;SDS011;44826;51.596;5.624;2023-09-08T00:01:16;9.70;;;5.78;;
59042;SDS011;44826;51.596;5.624;2023-09-08T00:03:42;7.40;;;5.45;;
59042;SDS011;44826;51.596;5.624;2023-09-08T00:06:07;9.55;;;5.88;;
59042;SDS011;44826;51.596;5.624;2023-09-08T00:08:33;9.55;;;5.88;;
59042;SDS011;44826;51.596;5.624;2023-09-08T00:10:58;7.60;;;5.93;;
59042;SDS011;44826;51.596;5.624;2023-09-08T00:13:23;8.05;;;5.88;;
59042;SDS011;44826;51.596;5.624;2023-09-08T00:15:48;7.60;;;5.38;;
59042;SDS011;44826;51.596;5.624;2023-09-08T00:18:14;7.20;;;5.72;;
59042;SDS011;44826;51.596;5.624;2023-09-08T00:20:39;7.68;;;5.65;;
59042;SDS011;44826;51.596;5.624;2023-09-08T00:23:06;6.60;;;5.28;;
59042;SDS011;44826;51.596;5.624;2023-09-08T00:25:32;8.40;;;5.88;;
59042;SDS011;44826;51.596;5.624;2023-09-08T00:27:57;7.40;;;5.68;;
59042;SDS011;44826;51.596;5.624;2023-09-08T00:30:22;6.85;;;5.28;;
59042;SDS011;44826;51.596;5.624;2023-09-08T00:32:47;6.45;;;5.30;;
59042;SDS011;44826;51.596;5.624;2023-09-08T00:35:13;7.20;;;6.00;;
59042;SDS011;44826;51.596;5.624;2023-09-08T00:37:39;7.57;;;5.68;;
59042;SDS011;44826;51.596;5.624;2023-09-08T00:40:05;7.07;;;5.47;;
59042;SDS011;44826;51.596;5.624;2023-09-08T00:42:32;6.90;;;5.80;;
59042;SDS011;44826;51.596;5.624;2023-09-08T00:44:57;7.07;;;5.65;;
59042;SDS011;44826;51.596;5.624;2023-09-08T00:47:22;6.80;;;5.60;;
59042;SDS011;44826;51.596;5.624;2023-09-08T00:49:48;7.35;;;5.65;;
59042;SDS011;44826;51.596;5.624;2023-09-08T00:52:16;7.50;;;5.72;;
59042;SDS011;44826;51.596;5.624;2023-09-08T00:54:41;8.48;;;5.88;;
59042;SDS011;44826;51.596;5.624;2023-09-08T00:57:07;7.82;;;5.80;;
59042;SDS011;44826;51.596;5.624;2023-09-08T00:59:34;8.25;;;5.68;;
59042;SDS011;44826;51.596;5.624;2023-09-08T01:02:00;7.60;;;6.22;;
59042;SDS011;44826;51.596;5.624;2023-09-08T01:04:27;7.38;;;5.38;;
59042;SDS011;44826;51.596;5.624;2023-09-08T01:06:53;7.85;;;6.15;;
59042;SDS011;44826;51.596;5.624;2023-09-08T01:09:20;10.07;;;5.75;;
59042;SDS011;44826;51.596;5.624;2023-09-08T01:11:46;8.02;;;5.97;;
59042;SDS011;44826;51.596;5.624;2023-09-08T01:14:12;7.30;;;5.65;;
59042;SDS011;44826;51.596;5.624;2023-09-08T01:16:38;8.10;;;5.78;;
59042;SDS011;44826;51.596;5.624;2023-09-08T01:19:06;12.48;;;6.00;;
59042;SDS011;44826;51.596;5.624;2023-09-08T01:21:52;8.02;;;5.85;;
59042;SDS011;44826;51.596;5.624;2023-09-08T01:27:04;8.27;;;5.85;;
59042;SDS011;44826;51.596;5.624;2023-09-08T01:29:32;9.35;;;6.28;;
59042;SDS011;44826;51.596;5.624;2023-09-08T01:31:59;8.32;;;5.93;;
59042;SDS011;44826;51.596;5.624;2023-09-08T01:34:25;7.95;;;5.88;;
59042;SDS011;44826;51.596;5.624;2023-09-08T01:36:51;7.03;;;5.72;;
59042;SDS011;44826;51.596;5.624;2023-09-08T01:39:16;8.70;;;6.10;;
59042;SDS011;44826;51.596;5.624;2023-09-08T01:41:41;7.90;;;5.60;;
59042;SDS011;44826;51.596;5.624;2023-09-08T01:44:07;8.30;;;5.82;;
59042;SDS011;44826;51.596;5.624;2023-09-08T01:46:35;7.38;;;5.43;;
59042;SDS011;44826;51.596;5.624;2023-09-08T01:49:00;8.85;;;5.95;;
59042;SDS011;44826;51.596;5.624;2023-09-08T01:51:26;8.02;;;5.82;;
59042;SDS011;44826;51.596;5.624;2023-09-08T01:53:51;8.05;;;5.53;;
59042;SDS011;44826;51.596;5.624;2023-09-08T01:56:16;7.72;;;5.60;;
59042;SDS011;44826;51.596;5.624;2023-09-08T01:58:41;6.72;;;5.18;;
59042;SDS011;44826;51.596;5.624;2023-09-08T02:01:07;7.28;;;5.43;;
59042;SDS011;44826;51.596;5.624;2023-09-08T02:03:32;8.32;;;5.18;;
59042;SDS011;44826;51.596;5.624;2023-09-08T02:05:58;7.70;;;5.75;;
59042;SDS011;44826;51.596;5.624;2023-09-08T02:08:23;10.23;;;5.85;;
59042;SDS011;44826;51.596;5.624;2023-09-08T02:10:48;8.77;;;6.40;;
59042;SDS011;44826;51.596;5.624;2023-09-08T02:13:13;7.28;;;5.82;;
59042;SDS011;44826;51.596;5.624;2023-09-08T02:15:39;9.85;;;6.15;;
59042;SDS011;44826;51.596;5.624;2023-09-08T02:18:05;9.15;;;6.05;;
59042;SDS011;44826;51.596;5.624;2023-09-08T02:20:31;6.88;;;5.75;;
59042;SDS011;44826;51.596;5.624;2023-09-08T02:22:57;6.85;;;5.50;;
59042;SDS011;44826;51.596;5.624;2023-09-08T02:25:28;6.88;;;5.05;;
59042;SDS011;44826;51.596;5.624;2023-09-08T02:27:53;7.40;;;5.47;;
59042;SDS011;44826;51.596;5.624;2023-09-08T02:30:19;6.80;;;5.63;;
59042;SDS011;44826;51.596;5.624;2023-09-08T02:32:44;7.35;;;4.97;;
59042;SDS011;44826;51.596;5.624;2023-09-08T02:35:10;6.43;;;5.05;;
59042;SDS011;44826;51.596;5.624;2023-09-08T02:37:35;7.55;;;5.50;;
59042;SDS011;44826;51.596;5.624;2023-09-08T02:40:01;6.40;;;5.22;;
59042;SDS011;44826;51.596;5.624;2023-09-08T02:42:27;6.53;;;4.97;;
59042;SDS011;44826;51.596;5.624;2023-09-08T02:44:52;6.40;;;5.25;;
59042;SDS011;44826;51.596;5.624;2023-09-08T02:47:17;7.93;;;5.53;;
59042;SDS011;44826;51.596;5.624;2023-09-08T02:49:42;6.15;;;4.78;;
59042;SDS011;44826;51.596;5.624;2023-09-08T02:52:08;6.70;;;5.13;;
59042;SDS011;44826;51.596;5.624;2023-09-08T02:54:33;6.80;;;5.47;;
59042;SDS011;44826;51.596;5.624;2023-09-08T02:56:59;6.88;;;4.90;;
59042;SDS011;44826;51.596;5.624;2023-09-08T02:59:24;6.32;;;5.18;;
59042;SDS011;44826;51.596;5.624;2023-09-08T03:01:49;6.22;;;5.00;;
59042;SDS011;44826;51.596;5.624;2023-09-08T03:04:14;7.68;;;5.70;;
59042;SDS011;44826;51.596;5.624;2023-09-08T03:06:40;8.40;;;5.85;;
59042;SDS011;44826;51.596;5.624;2023-09-08T03:09:05;8.60;;;6.10;;
59042;SDS011;44826;51.596;5.624;2023-09-08T03:11:30;7.18;;;5.72;;
59042;SDS011;44826;51.596;5.624;2023-09-08T03:13:55;8.85;;;5.32;;
59042;SDS011;44826;51.596;5.624;2023-09-08T03:16:21;8.63;;;5.78;;
59042;SDS011;44826;51.596;5.624;2023-09-08T03:18:46;9.65;;;5.93;;
59042;SDS011;44826;51.596;5.624;2023-09-08T03:21:13;7.78;;;5.82;;
59042;SDS011;44826;51.596;5.624;2023-09-08T03:23:39;8.57;;;5.97;;
59042;SDS011;44826;51.596;5.624;2023-09-08T03:26:06;9.60;;;6.10;;
59042;SDS011;44826;51.596;5.624;2023-09-08T03:28:33;8.07;;;6.28;;
59042;SDS011;44826;51.596;5.624;2023-09-08T03:31:00;8.95;;;5.78;;
59042;SDS011;44826;51.596;5.624;2023-09-08T03:33:26;7.90;;;5.07;;
59042;SDS011;44826;51.596;5.624;2023-09-08T03:35:51;7.80;;;5.45;;
59042;SDS011;44826;51.596;5.624;2023-09-08T03:38:16;7.15;;;5.35;;
59042;SDS011;44826;51.596;5.624;2023-09-08T03:40:41;6.72;;;5.43;;
59042;SDS011;44826;51.596;5.624;2023-09-08T03:43:07;6.68;;;5.25;;
59042;SDS011;44826;51.596;5.624;2023-09-08T03:45:33;7.63;;;4.95;;
59042;SDS011;44826;51.596;5.624;2023-09-08T03:47:58;6.00;;;4.80;;
59042;SDS011;44826;51.596;5.624;2023-09-08T03:50:23;6.15;;;4.68;;
59042;SDS011;44826;51.596;5.624;2023-09-08T03:52:49;6.90;;;5.40;;
59042;SDS011;44826;51.596;5.624;2023-09-08T03:55:15;7.50;;;5.40;;
59042;SDS011;44826;51.596;5.624;2023-09-08T03:57:41;5.90;;;4.80;;
59042;SDS011;44826;51.596;5.624;2023-09-08T04:00:07;8.80;;;5.35;;
59042;SDS011;44826;51.596;5.624;2023-09-08T04:02:33;6.35;;;5.25;;
59042;SDS011;44826;51.596;5.624;2023-09-08T04:04:58;6.57;;;5.47;;
59042;SDS011;44826;51.596;5.624;2023-09-08T04:07:23;6.60;;;5.50;;
59042;SDS011;44826;51.596;5.624;2023-09-08T04:09:49;7.47;;;5.60;;
59042;SDS011;44826;51.596;5.624;2023-09-08T04:12:14;6.88;;;5.30;;
59042;SDS011;44826;51.596;5.624;2023-09-08T04:14:39;6.63;;;5.55;;
59042;SDS011;44826;51.596;5.624;2023-09-08T04:17:04;9.43;;;5.55;;
59042;SDS011;44826;51.596;5.624;2023-09-08T04:19:30;7.95;;;6.22;;
59042;SDS011;44826;51.596;5.624;2023-09-08T04:21:55;7.07;;;5.93;;
59042;SDS011;44826;51.596;5.624;2023-09-08T04:24:20;7.22;;;5.65;;
59042;SDS011;44826;51.596;5.624;2023-09-08T04:26:45;7.68;;;5.82;;
59042;SDS011;44826;51.596;5.624;2023-09-08T04:29:11;7.63;;;5.93;;
59042;SDS011;44826;51.596;5.624;2023-09-08T04:31:36;7.35;;;5.70;;
59042;SDS011;44826;51.596;5.624;2023-09-08T04:34:02;9.70;;;6.90;;
59042;SDS011;44826;51.596;5.624;2023-09-08T04:36:27;8.50;;;6.05;;
59042;SDS011;44826;51.596;5.624;2023-09-08T04:38:52;7.78;;;6.00;;
59042;SDS011;44826;51.596;5.624;2023-09-08T04:41:17;9.52;;;6.38;;
59042;SDS011;44826;51.596;5.624;2023-09-08T04:43:43;7.50;;;6.00;;
59042;SDS011;44826;51.596;5.624;2023-09-08T04:46:08;8.07;;;6.13;;
59042;SDS011;44826;51.596;5.624;2023-09-08T04:48:34;8.10;;;6.32;;
59042;SDS011;44826;51.596;5.624;2023-09-08T04:51:00;10.10;;;6.45;;
59042;SDS011;44826;51.596;5.624;2023-09-08T04:53:25;9.00;;;6.20;;
59042;SDS011;44826;51.596;5.624;2023-09-08T04:55:50;10.00;;;6.38;;
59042;SDS011;44826;51.596;5.624;2023-09-08T04:58:16;7.47;;;6.13;;
59042;SDS011;44826;51.596;5.624;2023-09-08T05:00:41;9.50;;;6.40;;
59042;SDS011;44826;51.596;5.624;2023-09-08T05:03:06;9.05;;;6.78;;
59042;SDS011;44826;51.596;5.624;2023-09-08T05:05:31;9.50;;;6.72;;
59042;SDS011;44826;51.596;5.624;2023-09-08T05:07:57;11.38;;;7.43;;
59042;SDS011;44826;51.596;5.624;2023-09-08T05:10:22;8.95;;;6.55;;
59042;SDS011;44826;51.596;5.624;2023-09-08T05:12:48;8.10;;;6.68;;
59042;SDS011;44826;51.596;5.624;2023-09-08T05:15:14;7.30;;;5.95;;
59042;SDS011;44826;51.596;5.624;2023-09-08T05:17:41;8.82;;;6.07;;
59042;SDS011;44826;51.596;5.624;2023-09-08T05:20:06;9.57;;;6.82;;
59042;SDS011;44826;51.596;5.624;2023-09-08T05:22:32;9.82;;;6.53;;
59042;SDS011;44826;51.596;5.624;2023-09-08T05:24:58;9.80;;;6.50;;
59042;SDS011;44826;51.596;5.624;2023-09-08T05:27:23;10.00;;;6.75;;
59042;SDS011;44826;51.596;5.624;2023-09-08T05:29:48;9.73;;;6.78;;
59042;SDS011;44826;51.596;5.624;2023-09-08T05:32:13;9.88;;;6.90;;
59042;SDS011;44826;51.596;5.624;2023-09-08T05:34:39;9.10;;;6.93;;
59042;SDS011;44826;51.596;5.624;2023-09-08T05:37:04;10.70;;;6.88;;
59042;SDS011;44826;51.596;5.624;2023-09-08T05:39:29;10.65;;;7.03;;
59042;SDS011;44826;51.596;5.624;2023-09-08T05:41:54;10.40;;;6.97;;
59042;SDS011;44826;51.596;5.624;2023-09-08T05:44:20;9.38;;;7.00;;
59042;SDS011;44826;51.596;5.624;2023-09-08T05:46:45;9.32;;;6.93;;
59042;SDS011;44826;51.596;5.624;2023-09-08T05:49:10;9.25;;;7.07;;
59042;SDS011;44826;51.596;5.624;2023-09-08T05:51:36;10.65;;;7.03;;
59042;SDS011;44826;51.596;5.624;2023-09-08T05:54:01;9.93;;;7.15;;
59042;SDS011;44826;51.596;5.624;2023-09-08T05:56:29;9.98;;;7.15;;
59042;SDS011;44826;51.596;5.624;2023-09-08T05:58:56;9.93;;;7.70;;
59042;SDS011;44826;51.596;5.624;2023-09-08T06:01:21;11.90;;;7.43;;
59042;SDS011;44826;51.596;5.624;2023-09-08T06:03:47;10.80;;;7.38;;
59042;SDS011;44826;51.596;5.624;2023-09-08T06:06:12;10.30;;;7.65;;
59042;SDS011;44826;51.596;5.624;2023-09-08T06:08:38;10.82;;;7.57;;
59042;SDS011;44826;51.596;5.624;2023-09-08T06:11:03;11.60;;;7.43;;
59042;SDS011;44826;51.596;5.624;2023-09-08T06:13:29;12.00;;;7.63;;
59042;SDS011;44826;51.596;5.624;2023-09-08T06:15:54;11.02;;;7.93;;
59042;SDS011;44826;51.596;5.624;2023-09-08T06:18:19;10.82;;;7.97;;
59042;SDS011;44826;51.596;5.624;2023-09-08T06:20:47;11.50;;;7.57;;
59042;SDS011;44826;51.596;5.624;2023-09-08T06:23:13;11.13;;;8.88;;
59042;SDS011;44826;51.596;5.624;2023-09-08T06:25:39;12.38;;;8.85;;
59042;SDS011;44826;51.596;5.624;2023-09-08T06:28:04;12.65;;;8.70;;
59042;SDS011;44826;51.596;5.624;2023-09-08T06:30:29;11.50;;;9.20;;
59042;SDS011;44826;51.596;5.624;2023-09-08T06:32:55;12.88;;;9.18;;
59042;SDS011;44826;51.596;5.624;2023-09-08T06:35:20;12.32;;;9.18;;
59042;SDS011;44826;51.596;5.624;2023-09-08T06:37:45;12.63;;;9.30;;
59042;SDS011;44826;51.596;5.624;2023-09-08T06:40:11;13.00;;;9.85;;
59042;SDS011;44826;51.596;5.624;2023-09-08T06:42:36;13.27;;;10.52;;
59042;SDS011;44826;51.596;5.624;2023-09-08T06:45:01;13.85;;;9.30;;
59042;SDS011;44826;51.596;5.624;2023-09-08T06:47:26;14.57;;;10.27;;
59042;SDS011;44826;51.596;5.624;2023-09-08T06:49:52;12.40;;;10.07;;
59042;SDS011;44826;51.596;5.624;2023-09-08T06:52:17;12.63;;;10.18;;
59042;SDS011;44826;51.596;5.624;2023-09-08T06:54:43;12.82;;;9.80;;
59042;SDS011;44826;51.596;5.624;2023-09-08T06:57:10;12.73;;;10.45;;
59042;SDS011;44826;51.596;5.624;2023-09-08T06:59:35;14.32;;;10.00;;
59042;SDS011;44826;51.596;5.624;2023-09-08T07:02:00;13.25;;;10.15;;
59042;SDS011;44826;51.596;5.624;2023-09-08T07:04:26;11.23;;;9.55;;
59042;SDS011;44826;51.596;5.624;2023-09-08T07:06:51;13.30;;;9.95;;
59042;SDS011;44826;51.596;5.624;2023-09-08T07:09:19;12.27;;;9.95;;
59042;SDS011;44826;51.596;5.624;2023-09-08T07:11:45;12.63;;;9.38;;
59042;SDS011;44826;51.596;5.624;2023-09-08T07:14:10;13.82;;;9.60;;
59042;SDS011;44826;51.596;5.624;2023-09-08T07:16:35;13.77;;;9.82;;
59042;SDS011;44826;51.596;5.624;2023-09-08T07:19:00;13.60;;;9.98;;
59042;SDS011;44826;51.596;5.624;2023-09-08T07:21:26;11.85;;;9.32;;
59042;SDS011;44826;51.596;5.624;2023-09-08T07:23:51;11.88;;;9.43;;
59042;SDS011;44826;51.596;5.624;2023-09-08T07:26:18;11.70;;;9.43;;
59042;SDS011;44826;51.596;5.624;2023-09-08T07:28:44;11.55;;;9.48;;
59042;SDS011;44826;51.596;5.624;2023-09-08T07:31:09;10.95;;;8.93;;
59042;SDS011;44826;51.596;5.624;2023-09-08T07:33:35;11.45;;;9.65;;
59042;SDS011;44826;51.596;5.624;2023-09-08T07:36:07;10.35;;;8.77;;
59042;SDS011;44826;51.596;5.624;2023-09-08T07:38:33;12.00;;;9.05;;
59042;SDS011;44826;51.596;5.624;2023-09-08T07:40:59;12.90;;;9.52;;
59042;SDS011;44826;51.596;5.624;2023-09-08T07:43:26;12.63;;;9.10;;
59042;SDS011;44826;51.596;5.624;2023-09-08T07:45:51;12.48;;;9.82;;
59042;SDS011;44826;51.596;5.624;2023-09-08T07:48:16;12.68;;;9.40;;
59042;SDS011;44826;51.596;5.624;2023-09-08T07:50:42;11.82;;;9.00;;
59042;SDS011;44826;51.596;5.624;2023-09-08T07:53:07;11.70;;;9.00;;
59042;SDS011;44826;51.596;5.624;2023-09-08T07:55:32;11.63;;;8.63;;
59042;SDS011;44826;51.596;5.624;2023-09-08T07:57:58;10.98;;;9.38;;
59042;SDS011;44826;51.596;5.624;2023-09-08T08:00:23;11.68;;;8.90;;
59042;SDS011;44826;51.596;5.624;2023-09-08T08:02:50;12.95;;;9.32;;
59042;SDS011;44826;51.596;5.624;2023-09-08T08:05:21;10.70;;;8.48;;
59042;SDS011;44826;51.596;5.624;2023-09-08T08:07:47;11.63;;;8.27;;
59042;SDS011;44826;51.596;5.624;2023-09-08T08:10:13;11.48;;;8.68;;
59042;SDS011;44826;51.596;5.624;2023-09-08T08:12:39;10.60;;;8.82;;
59042;SDS011;44826;51.596;5.624;2023-09-08T08:15:05;12.20;;;8.40;;
59042;SDS011;44826;51.596;5.624;2023-09-08T08:17:31;9.85;;;8.27;;
59042;SDS011;44826;51.596;5.624;2023-09-08T08:19:56;9.30;;;8.00;;
59042;SDS011;44826;51.596;5.624;2023-09-08T08:22:23;10.32;;;8.23;;
59042;SDS011;44826;51.596;5.624;2023-09-08T08:24:49;8.73;;;7.40;;
59042;SDS011;44826;51.596;5.624;2023-09-08T08:27:14;9.27;;;7.78;;
59042;SDS011;44826;51.596;5.624;2023-09-08T08:29:40;9.88;;;7.82;;
59042;SDS011;44826;51.596;5.624;2023-09-08T08:32:05;12.73;;;7.78;;
59042;SDS011;44826;51.596;5.624;2023-09-08T08:34:30;9.10;;;7.55;;
59042;SDS011;44826;51.596;5.624;2023-09-08T08:36:56;11.40;;;8.07;;
59042;SDS011;44826;51.596;5.624;2023-09-08T08:39:21;8.73;;;7.20;;
59042;SDS011;44826;51.596;5.624;2023-09-08T08:41:46;8.25;;;7.10;;
59042;SDS011;44826;51.596;5.624;2023-09-08T08:44:12;8.18;;;7.07;;
59042;SDS011;44826;51.596;5.624;2023-09-08T08:46:38;9.88;;;7.38;;
59042;SDS011;44826;51.596;5.624;2023-09-08T08:49:05;8.43;;;7.22;;
59042;SDS011;44826;51.596;5.624;2023-09-08T08:51:31;9.77;;;7.35;;
59042;SDS011;44826;51.596;5.624;2023-09-08T08:53:57;7.70;;;6.82;;
59042;SDS011;44826;51.596;5.624;2023-09-08T08:56:22;9.38;;;7.22;;
59042;SDS011;44826;51.596;5.624;2023-09-08T08:58:48;8.70;;;7.05;;
59042;SDS011;44826;51.596;5.624;2023-09-08T09:01:17;8.43;;;6.95;;
59042;SDS011;44826;51.596;5.624;2023-09-08T09:03:45;9.25;;;7.32;;
59042;SDS011;44826;51.596;5.624;2023-09-08T09:06:13;8.75;;;7.03;;
59042;SDS011;44826;51.596;5.624;2023-09-08T09:08:40;9.88;;;7.80;;
59042;SDS011;44826;51.596;5.624;2023-09-08T09:11:08;9.15;;;7.22;;
59042;SDS011;44826;51.596;5.624;2023-09-08T09:13:34;9.68;;;7.32;;
59042;SDS011;44826;51.596;5.624;2023-09-08T09:16:02;9.60;;;7.53;;
59042;SDS011;44826;51.596;5.624;2023-09-08T09:18:29;8.70;;;6.95;;
59042;SDS011;44826;51.596;5.624;2023-09-08T09:20:57;9.68;;;7.45;;
59042;SDS011;44826;51.596;5.624;2023-09-08T09:23:33;9.95;;;7.38;;
59042;SDS011;44826;51.596;5.624;2023-09-08T09:26:00;9.32;;;7.72;;
59042;SDS011;44826;51.596;5.624;2023-09-08T09:28:29;10.05;;;8.20;;
59042;SDS011;44826;51.596;5.624;2023-09-08T09:30:54;9.55;;;7.78;;
59042;SDS011;44826;51.596;5.624;2023-09-08T09:33:20;8.63;;;7.47;;
59042;SDS011;44826;51.596;5.624;2023-09-08T09:35:47;9.30;;;6.85;;
59042;SDS011;44826;51.596;5.624;2023-09-08T09:38:16;7.63;;;6.45;;
59042;SDS011;44826;51.596;5.624;2023-09-08T09:40:46;8.68;;;6.93;;
59042;SDS011;44826;51.596;5.624;2023-09-08T09:43:12;9.38;;;7.85;;
59042;SDS011;44826;51.596;5.624;2023-09-08T09:45:39;9.93;;;7.93;;
59042;SDS011;44826;51.596;5.624;2023-09-08T09:48:06;9.60;;;7.68;;
59042;SDS011;44826;51.596;5.624;2023-09-08T09:50:37;9.88;;;7.35;;
59042;SDS011;44826;51.596;5.624;2023-09-08T09:53:11;8.65;;;6.85;;
59042;SDS011;44826;51.596;5.624;2023-09-08T09:55:38;9.75;;;7.20;;
59042;SDS011;44826;51.596;5.624;2023-09-08T09:58:05;8.02;;;7.22;;
59042;SDS011;44826;51.596;5.624;2023-09-08T10:00:32;10.43;;;7.00;;
59042;SDS011;44826;51.596;5.624;2023-09-08T10:02:58;8.45;;;6.88;;
59042;SDS011;44826;51.596;5.624;2023-09-08T10:05:24;8.75;;;6.88;;
59042;SDS011;44826;51.596;5.624;2023-09-08T10:07:50;9.25;;;6.25;;
59042;SDS011;44826;51.596;5.624;2023-09-08T10:10:16;7.68;;;6.25;;
59042;SDS011;44826;51.596;5.624;2023-09-08T10:12:43;8.38;;;6.65;;
59042;SDS011;44826;51.596;5.624;2023-09-08T10:15:12;9.50;;;6.47;;
59042;SDS011;44826;51.596;5.624;2023-09-08T10:17:43;6.80;;;6.10;;
59042;SDS011;44826;51.596;5.624;2023-09-08T10:20:10;9.07;;;6.28;;
59042;SDS011;44826;51.596;5.624;2023-09-08T10:22:41;6.75;;;5.40;;
59042;SDS011;44826;51.596;5.624;2023-09-08T10:25:10;7.05;;;5.78;;
59042;SDS011;44826;51.596;5.624;2023-09-08T10:27:37;7.30;;;5.85;;
59042;SDS011;44826;51.596;5.624;2023-09-08T10:30:04;7.88;;;5.60;;
59042;SDS011;44826;51.596;5.624;2023-09-08T10:32:35;6.13;;;5.47;;
59042;SDS011;44826;51.596;5.624;2023-09-08T10:35:04;9.27;;;5.80;;
59042;SDS011;44826;51.596;5.624;2023-09-08T10:37:31;7.38;;;6.18;;
59042;SDS011;44826;51.596;5.624;2023-09-08T10:40:10;6.70;;;6.00;;
59042;SDS011;44826;51.596;5.624;2023-09-08T10:42:49;7.80;;;5.90;;
59042;SDS011;44826;51.596;5.624;2023-09-08T10:45:31;6.75;;;5.78;;
59042;SDS011;44826;51.596;5.624;2023-09-08T10:47:56;8.73;;;6.07;;
59042;SDS011;44826;51.596;5.624;2023-09-08T10:50:26;6.15;;;5.43;;
59042;SDS011;44826;51.596;5.624;2023-09-08T10:55:40;7.25;;;5.55;;
59042;SDS011;44826;51.596;5.624;2023-09-08T10:58:10;8.50;;;5.78;;
59042;SDS011;44826;51.596;5.624;2023-09-08T11:00:54;10.27;;;6.50;;
59042;SDS011;44826;51.596;5.624;2023-09-08T11:03:25;7.32;;;5.95;;
59042;SDS011;44826;51.596;5.624;2023-09-08T11:06:16;8.18;;;5.95;;
59042;SDS011;44826;51.596;5.624;2023-09-08T11:08:47;8.32;;;5.63;;
59042;SDS011;44826;51.596;5.624;2023-09-08T11:11:14;7.90;;;6.18;;
59042;SDS011;44826;51.596;5.624;2023-09-08T11:13:40;8.73;;;6.72;;
59042;SDS011;44826;51.596;5.624;2023-09-08T11:16:06;7.93;;;6.57;;
59042;SDS011;44826;51.596;5.624;2023-09-08T11:18:32;6.93;;;6.07;;
59042;SDS011;44826;51.596;5.624;2023-09-08T11:20:59;8.07;;;5.93;;
59042;SDS011;44826;51.596;5.624;2023-09-08T11:23:25;7.63;;;5.50;;
59042;SDS011;44826;51.596;5.624;2023-09-08T11:25:51;6.80;;;5.43;;
59042;SDS011;44826;51.596;5.624;2023-09-08T11:28:17;8.23;;;5.20;;
59042;SDS011;44826;51.596;5.624;2023-09-08T11:30:45;6.38;;;5.40;;
59042;SDS011;44826;51.596;5.624;2023-09-08T11:33:14;6.82;;;5.25;;
59042;SDS011;44826;51.596;5.624;2023-09-08T11:35:47;7.15;;;4.80;;
59042;SDS011;44826;51.596;5.624;2023-09-08T11:38:12;5.78;;;5.18;;
59042;SDS011;44826;51.596;5.624;2023-09-08T11:43:31;5.47;;;4.78;;
59042;SDS011;44826;51.596;5.624;2023-09-08T11:45:59;7.57;;;4.60;;
59042;SDS011;44826;51.596;5.624;2023-09-08T11:48:24;6.78;;;4.70;;
59042;SDS011;44826;51.596;5.624;2023-09-08T11:50:53;6.18;;;4.63;;
59042;SDS011;44826;51.596;5.624;2023-09-08T11:53:19;6.53;;;4.97;;
59042;SDS011;44826;51.596;5.624;2023-09-08T11:55:45;7.72;;;5.10;;
59042;SDS011;44826;51.596;5.624;2023-09-08T11:58:11;6.13;;;4.70;;
59042;SDS011;44826;51.596;5.624;2023-09-08T12:00:37;6.03;;;4.60;;
59042;SDS011;44826;51.596;5.624;2023-09-08T12:03:11;6.15;;;4.80;;
59042;SDS011;44826;51.596;5.624;2023-09-08T12:05:37;8.20;;;5.00;;
59042;SDS011;44826;51.596;5.624;2023-09-08T12:08:03;10.50;;;5.22;;
59042;SDS011;44826;51.596;5.624;2023-09-08T12:10:30;6.15;;;4.70;;
59042;SDS011;44826;51.596;5.624;2023-09-08T12:13:02;6.82;;;4.95;;
59042;SDS011;44826;51.596;5.624;2023-09-08T12:18:03;6.82;;;4.72;;
59042;SDS011;44826;51.596;5.624;2023-09-08T12:20:30;5.60;;;4.80;;
59042;SDS011;44826;51.596;5.624;2023-09-08T12:22:57;6.40;;;4.57;;
59042;SDS011;44826;51.596;5.624;2023-09-08T12:25:25;5.97;;;4.80;;
59042;SDS011;44826;51.596;5.624;2023-09-08T12:27:52;5.15;;;4.60;;
59042;SDS011;44826;51.596;5.624;2023-09-08T12:30:19;5.68;;;4.82;;
59042;SDS011;44826;51.596;5.624;2023-09-08T12:32:48;5.88;;;4.47;;
59042;SDS011;44826;51.596;5.624;2023-09-08T12:35:19;5.60;;;4.50;;
59042;SDS011;44826;51.596;5.624;2023-09-08T12:37:52;5.82;;;4.65;;
59042;SDS011;44826;51.596;5.624;2023-09-08T12:40:18;5.63;;;4.20;;
59042;SDS011;44826;51.596;5.624;2023-09-08T12:42:43;6.28;;;4.28;;
59042;SDS011;44826;51.596;5.624;2023-09-08T12:45:09;4.82;;;4.30;;
59042;SDS011;44826;51.596;5.624;2023-09-08T12:47:34;5.18;;;4.18;;
59042;SDS011;44826;51.596;5.624;2023-09-08T12:50:00;5.68;;;4.30;;
59042;SDS011;44826;51.596;5.624;2023-09-08T12:52:26;6.57;;;4.00;;
59042;SDS011;44826;51.596;5.624;2023-09-08T12:54:52;5.47;;;3.90;;
59042;SDS011;44826;51.596;5.624;2023-09-08T12:57:17;6.57;;;4.00;;
59042;SDS011;44826;51.596;5.624;2023-09-08T12:59:42;4.22;;;3.78;;
59042;SDS011;44826;51.596;5.624;2023-09-08T13:02:07;6.90;;;4.38;;
59042;SDS011;44826;51.596;5.624;2023-09-08T13:04:33;6.10;;;3.72;;
59042;SDS011;44826;51.596;5.624;2023-09-08T13:06:58;5.40;;;3.60;;
59042;SDS011;44826;51.596;5.624;2023-09-08T13:09:26;4.60;;;3.90;;
59042;SDS011;44826;51.596;5.624;2023-09-08T13:11:51;4.50;;;4.10;;
59042;SDS011;44826;51.596;5.624;2023-09-08T13:14:16;4.80;;;3.90;;
59042;SDS011;44826;51.596;5.624;2023-09-08T13:16:42;7.53;;;4.13;;
59042;SDS011;44826;51.596;5.624;2023-09-08T13:19:07;5.07;;;4.05;;
59042;SDS011;44826;51.596;5.624;2023-09-08T13:21:32;6.65;;;4.03;;
59042;SDS011;44826;51.596;5.624;2023-09-08T13:23:57;6.05;;;4.13;;
59042;SDS011;44826;51.596;5.624;2023-09-08T13:26:23;4.97;;;4.00;;
59042;SDS011;44826;51.596;5.624;2023-09-08T13:28:48;7.00;;;4.22;;
59042;SDS011;44826;51.596;5.624;2023-09-08T13:31:13;4.57;;;4.07;;
59042;SDS011;44826;51.596;5.624;2023-09-08T13:33:38;4.38;;;3.88;;
59042;SDS011;44826;51.596;5.624;2023-09-08T13:36:04;6.45;;;3.88;;
59042;SDS011;44826;51.596;5.624;2023-09-08T13:38:29;6.20;;;4.43;;
59042;SDS011;44826;51.596;5.624;2023-09-08T13:40:54;6.10;;;4.28;;
59042;SDS011;44826;51.596;5.624;2023-09-08T13:43:20;8.52;;;4.70;;
59042;SDS011;44826;51.596;5.624;2023-09-08T13:45:45;6.68;;;4.13;;
59042;SDS011;44826;51.596;5.624;2023-09-08T13:48:10;5.07;;;4.20;;
59042;SDS011;44826;51.596;5.624;2023-09-08T13:50:37;6.22;;;4.18;;
59042;SDS011;44826;51.596;5.624;2023-09-08T13:53:04;5.28;;;4.07;;
59042;SDS011;44826;51.596;5.624;2023-09-08T13:55:29;7.95;;;4.22;;
59042;SDS011;44826;51.596;5.624;2023-09-08T13:57:55;5.80;;;4.00;;
59042;SDS011;44826;51.596;5.624;2023-09-08T14:00:20;5.95;;;3.83;;
59042;SDS011;44826;51.596;5.624;2023-09-08T14:02:45;5.82;;;3.92;;
59042;SDS011;44826;51.596;5.624;2023-09-08T14:05:10;6.20;;;4.10;;
59042;SDS011;44826;51.596;5.624;2023-09-08T14:07:36;6.25;;;4.40;;
59042;SDS011;44826;51.596;5.624;2023-09-08T14:10:01;5.32;;;4.45;;
59042;SDS011;44826;51.596;5.624;2023-09-08T14:12:32;6.03;;;3.88;;
59042;SDS011;44826;51.596;5.624;2023-09-08T14:14:57;7.03;;;4.72;;
59042;SDS011;44826;51.596;5.624;2023-09-08T14:17:22;7.00;;;4.40;;
59042;SDS011;44826;51.596;5.624;2023-09-08T14:19:48;5.95;;;4.28;;
59042;SDS011;44826;51.596;5.624;2023-09-08T14:22:13;4.72;;;4.00;;
59042;SDS011;44826;51.596;5.624;2023-09-08T14:24:38;6.68;;;4.50;;
59042;SDS011;44826;51.596;5.624;2023-09-08T14:27:04;6.13;;;4.10;;
59042;SDS011;44826;51.596;5.624;2023-09-08T14:29:29;5.68;;;4.38;;
59042;SDS011;44826;51.596;5.624;2023-09-08T14:31:54;4.70;;;3.88;;
59042;SDS011;44826;51.596;5.624;2023-09-08T14:34:19;5.82;;;4.32;;
59042;SDS011;44826;51.596;5.624;2023-09-08T14:36:45;5.22;;;4.15;;
59042;SDS011;44826;51.596;5.624;2023-09-08T14:39:10;6.20;;;4.28;;
59042;SDS011;44826;51.596;5.624;2023-09-08T14:41:35;5.13;;;3.78;;
59042;SDS011;44826;51.596;5.624;2023-09-08T14:44:00;5.25;;;4.30;;
59042;SDS011;44826;51.596;5.624;2023-09-08T14:46:26;5.28;;;4.07;;
59042;SDS011;44826;51.596;5.624;2023-09-08T14:48:51;5.53;;;4.25;;
59042;SDS011;44826;51.596;5.624;2023-09-08T14:51:16;5.00;;;4.13;;